Latest Coastal Weather Observations for Shark Bay Airport

IDW60701

Issued at 1:25 am WST Sunday 26 October 2014 (issued every 10 minutes, with the page automatically refreshed every 10 minutes)

About coastal observations | Map of coastal stations | Coastal observations for WA | Marine services | Other Formats
Station Details ID: 006105 Name: SHARK BAY AIRPORT Lat: -25.89 Lon: 113.58 Height: 33.8 m
Data from the previous 72 hours. | See also: Recent months for locations in Western Australia
Date/Time
WST
Temp

°C
Wind Pressure Rain
since 9am
mm
Weather Cloud Vis
km
Sea
Height
m
Swell
Dir
 
Speed
knots
Gust
knots
hPa Trend Height
m
Period
s
Dir
26/01:00am 18.4 S 9 13 1018.9 - 0.0 - - - - - - -
26/12:30am 18.5 S 8 13 1019.0 - 0.0 - - - - - - -
26/12:00am 19.0 S 12 17 1019.1 - 0.0 - - - - - - -
 
Date/Time
WST
Temp

°C
Wind Pressure Rain
since 9am
mm
Weather Cloud Vis
km
Sea
Height
m
Swell
Dir
 
Speed
knots
Gust
knots
hPa Trend Height
m
Period
s
Dir
25/11:30pm 19.3 S 12 18 1019.4 - 0.0 - - - - - - -
25/11:00pm 19.3 S 12 17 1019.4 - 0.0 - - - - - - -
25/10:30pm 19.3 S 12 16 1019.4 - 0.0 - - - - - - -
25/10:00pm 19.4 S 12 16 1019.4 - 0.0 - - - - - - -
25/09:30pm 19.7 S 11 15 1019.4 - 0.0 - - - - - - -
25/09:00pm 19.8 S 12 18 1019.6 - 0.0 - - - - - - -
25/08:30pm 20.0 S 13 19 1019.6 - 0.0 - - - - - - -
25/08:00pm 20.2 S 14 20 1019.3 - 0.0 - - - - - - -
25/07:30pm 20.6 S 12 17 1019.0 - 0.0 - - - - - - -
25/07:00pm 20.9 S 13 19 1018.7 - 0.0 - - - - - - -
25/06:30pm 21.5 S 14 20 1018.5 - 0.0 - - - - - - -
25/06:00pm 22.4 S 15 22 1018.4 - 0.0 - - - - - - -
25/05:30pm 23.2 S 15 22 1018.2 - 0.0 - - - - - - -
25/05:00pm 24.4 SSW 15 20 1018.1 - 0.0 - - - - - - -
25/04:30pm 24.8 S 17 21 1018.0 - 0.0 - - - - - - -
25/04:00pm 25.7 S 15 22 1018.0 - 0.0 - - - - - - -
25/03:30pm 25.6 SW 16 22 1017.9 - 0.0 - - - - - - -
25/03:00pm 26.6 SSW 14 24 1018.1 - 0.0 - - - - - - -
25/02:30pm 26.2 SW 13 20 1018.3 - 0.0 - - - - - - -
25/02:00pm 26.0 SW 14 18 1018.4 - 0.0 - - - - - - -
25/01:30pm 25.9 SW 14 20 1018.6 - 0.0 - - - - - - -
25/01:00pm 26.6 SW 12 19 1018.8 - 0.0 - - - - - - -
25/12:30pm 25.9 SW 13 19 1018.9 - 0.0 - - - - - - -
25/12:00pm 26.1 SW 12 18 1019.2 - 0.0 - - - - - - -
25/11:30am 25.6 SW 13 18 1019.3 - 0.0 - - - - - - -
25/11:00am 24.9 SSW 12 16 1019.5 - 0.0 - - - - - - -
25/10:30am 25.5 S 11 18 1019.5 - 0.0 - - - - - - -
25/10:00am 23.9 SSW 11 16 1019.7 - 0.0 - - - - - - -
25/09:30am 24.5 S 11 15 1019.5 - 0.0 - - - - - - -
25/09:00am 21.9 SW 12 16 1019.6 - 0.0 - - - - - - -
25/08:30am 21.8 S 10 14 1019.3 - 0.0 - - - - - - -
25/08:00am 23.1 S 11 17 1019.1 - 0.0 - - - - - - -
25/07:30am 22.2 SSE 9 11 1019.0 - 0.0 - - - - - - -
25/07:00am 20.5 SSE 7 9 1018.8 - 0.0 - - - - - - -
25/06:30am 18.2 SSE 5 7 1018.3 - 0.0 - - - - - - -
25/06:00am 16.9 S 7 8 1018.0 - 0.0 - - - - - - -
25/05:30am 17.5 S 7 9 1017.8 - 0.0 - - - - - - -
25/05:00am 18.1 S 8 11 1017.5 - 0.0 - - - - - - -
25/04:30am 18.8 S 8 11 1017.2 - 0.0 - - - - - - -
25/04:00am 19.4 SSW 11 14 1017.0 - 0.0 - - - - - - -
25/03:30am 19.5 SSW 10 14 1016.8 - 0.0 - - - - - - -
25/03:00am 19.3 SSW 9 11 1016.5 - 0.0 - - - - - - -
25/02:30am 18.6 SSW 8 10 1016.1 - 0.0 - - - - - - -
25/02:00am 18.5 S 7 9 1015.9 - 0.0 - - - - - - -
25/01:30am 18.3 S 5 7 1015.9 - 0.0 - - - - - - -
25/01:00am 18.2 S 7 9 1016.0 - 0.0 - - - - - - -
25/12:30am 18.3 S 6 8 1016.4 - 0.0 - - - - - - -
25/12:00am 19.2 S 7 10 1016.4 - 0.0 - - - - - - -
 
Date/Time
WST
Temp

°C
Wind Pressure Rain
since 9am
mm
Weather Cloud Vis
km
Sea
Height
m
Swell
Dir
 
Speed
knots
Gust
knots
hPa Trend Height
m
Period
s
Dir
24/11:30pm 20.0 S 8 11 1016.5 - 0.0 - - - - - - -
24/11:00pm 20.3 S 11 14 1016.7 - 0.0 - - - - - - -
24/10:30pm 20.2 SSW 9 12 1016.7 - 0.0 - - - - - - -
24/10:00pm 19.9 S 9 13 1016.8 - 0.0 - - - - - - -
24/09:30pm 19.5 SSW 10 15 1016.5 - 0.0 - - - - - - -
24/09:00pm 19.7 SSW 12 16 1016.3 - 0.0 - - - - - - -
24/08:30pm 20.0 SSW 14 19 1016.2 - 0.0 - - - - - - -
24/08:00pm 20.3 SSW 14 19 1016.0 - 0.0 - - - - - - -
24/07:30pm 20.3 SSW 13 21 1015.5 - 0.0 - - - - - - -
24/07:00pm 20.7 SW 13 18 1015.0 - 0.0 - - - - - - -
24/06:30pm 21.2 SW 13 18 1014.5 - 0.0 - - - - - - -
24/06:00pm 21.9 SW 14 19 1014.2 - 0.0 - - - - - - -
24/05:30pm 23.0 SW 15 21 1014.1 - 0.0 - - - - - - -
24/05:00pm 23.4 SW 16 23 1014.2 - 0.0 - - - - - - -
24/04:30pm 23.8 SW 18 24 1013.9 - 0.0 - - - - - - -
24/04:00pm 24.2 SSW 17 22 1014.0 - 0.0 - - - - - - -
24/03:30pm 24.8 SW 18 23 1014.1 - 0.0 - - - - - - -
24/03:00pm 25.1 SW 15 23 1014.1 - 0.0 - - - - - - -
24/02:30pm 26.1 SW 15 20 1014.2 - 0.0 - - - - - - -
24/02:00pm 25.9 SW 15 21 1014.3 - 0.0 - - - - - - -
24/01:30pm 25.6 SW 15 21 1014.4 - 0.0 - - - - - - -
24/01:00pm 26.3 SW 14 20 1014.7 - 0.0 - - - - - - -
24/12:30pm 26.4 SW 13 19 1014.8 - 0.0 - - - - - - -
24/12:00pm 26.6 SW 13 17 1015.0 - 0.0 - - - - - - -
24/11:30am 26.5 SW 12 15 1015.2 - 0.0 - - - - - - -
24/11:00am 25.6 SW 12 16 1015.3 - 0.0 - - - - - - -
24/10:30am 24.9 SW 14 18 1015.5 - 0.0 - - - - - - -
24/10:00am 24.5 SSW 14 17 1015.6 - 0.0 - - - - - - -
24/09:30am 23.7 S 11 18 1015.7 - 0.0 - - - - - - -
24/09:00am 23.8 SSE 9 14 1015.8 - 0.0 - - - - - - -
24/08:30am 23.0 S 10 14 1015.7 - 0.0 - - - - - - -
24/08:00am 22.2 S 11 15 1015.8 - 0.0 - - - - - - -
24/07:30am 21.1 S 11 16 1015.9 - 0.0 - - - - - - -
24/07:00am 19.5 S 11 16 1015.9 - 0.0 - - - - - - -
24/06:30am 17.8 SSE 8 12 1015.7 - 0.0 - - - - - - -
24/06:00am 16.3 S 7 10 1015.5 - 0.0 - - - - - - -
24/05:30am 16.2 SSE 7 10 1015.2 - 0.0 - - - - - - -
24/05:00am 16.1 S 7 9 1015.2 - 0.0 - - - - - - -
24/04:30am 16.2 S 7 8 1015.2 - 0.0 - - - - - - -
24/04:00am 16.3 S 7 8 1015.0 - 0.0 - - - - - - -
24/03:30am 16.7 S 7 10 1015.0 - 0.0 - - - - - - -
24/03:00am 17.1 SSE 8 11 1014.9 - 0.0 - - - - - - -
24/02:30am 17.3 SSE 8 11 1015.2 - 0.0 - - - - - - -
24/02:00am 17.3 SSE 8 11 1015.3 - 0.0 - - - - - - -
24/01:30am 16.8 SE 7 9 1015.6 - 0.0 - - - - - - -
24/01:00am 16.6 SSE 6 7 1015.9 - 0.0 - - - - - - -
24/12:30am 17.1 SSE 5 5 1016.0 - 0.0 - - - - - - -
24/12:00am 17.7 S 4 5 1016.1 - 0.0 - - - - - - -
 
Date/Time
WST
Temp

°C
Wind Pressure Rain
since 9am
mm
Weather Cloud Vis
km
Sea
Height
m
Swell
Dir
 
Speed
knots
Gust
knots
hPa Trend Height
m
Period
s
Dir
23/11:30pm 18.0 S 7 8 1016.1 - 0.0 - - - - - - -
23/11:00pm 18.4 S 7 8 1016.2 - 0.0 - - - - - - -
23/10:30pm 18.7 S 7 9 1016.2 - 0.0 - - - - - - -
23/10:00pm 19.1 S 7 9 1016.2 - 0.0 - - - - - - -
23/09:30pm 19.3 S 8 11 1016.2 - 0.0 - - - - - - -
23/09:00pm 19.9 S 11 15 1016.1 - 0.0 - - - - - - -
23/08:30pm 20.3 SSW 12 15 1016.1 - 0.0 - - - - - - -
23/08:00pm 20.4 SSW 10 15 1016.0 - 0.0 - - - - - - -
23/07:30pm 20.8 SW 12 15 1015.7 - 0.0 - - - - - - -
23/07:00pm 21.1 SW 12 16 1015.5 - 0.0 - - - - - - -
23/06:30pm 21.6 SW 11 16 1015.4 - 0.0 - - - - - - -
23/06:00pm 22.4 SW 13 17 1015.3 - 0.0 - - - - - - -
23/05:30pm 23.0 SW 13 16 1015.2 - 0.0 - - - - - - -
23/05:00pm 23.5 SW 14 20 1015.0 - 0.0 - - - - - - -
23/04:30pm 24.2 WSW 13 19 1015.1 - 0.0 - - - - - - -
23/04:00pm 24.7 WSW 13 19 1015.2 - 0.0 - - - - - - -
23/03:30pm 25.7 SW 12 16 1015.3 - 0.0 - - - - - - -
23/03:00pm 25.8 SW 12 18 1015.4 - 0.0 - - - - - - -
23/02:30pm 26.1 WSW 13 20 1015.7 - 0.0 - - - - - - -
23/02:00pm 25.7 SW 14 20 1015.9 - 0.0 - - - - - - -
23/01:30pm 26.9 W 13 22 1016.2 - 0.0 - - - - - - -
23/01:00pm 27.1 W 12 17 1016.4 - 0.0 - - - - - - -
23/12:30pm 25.7 W 12 19 1016.6 - 0.0 - - - - - - -
23/12:00pm 25.9 W 11 17 1017.0 - 0.0 - - - - - - -
23/11:30am 25.3 WSW 11 15 1017.4 - 0.0 - - - - - - -
23/11:00am 25.5 WSW 10 15 1017.7 - 0.0 - - - - - - -
23/10:30am 24.3 WSW 10 14 1018.0 - 0.0 - - - - - - -
23/10:00am 24.8 WSW 8 18 1018.1 - 0.0 - - - - - - -
23/09:30am 23.7 W 10 15 1018.1 - 0.0 - - - - - - -
23/09:00am 23.8 SW 8 14 1017.9 - 0.0 - - - - - - -
23/08:30am 23.2 SW 4 10 1017.5 - 0.0 - - - - - - -
23/08:00am 22.0 SSW 4 6 1017.0 - 0.0 - - - - - - -
23/07:30am 21.8 W 5 7 1016.8 - 0.0 - - - - - - -
23/07:00am 20.5 SE 3 4 1016.8 - 0.0 - - - - - - -
23/06:30am 18.5 S 2 4 1016.6 - 0.0 - - - - - - -
23/06:00am 15.8 WSW 4 6 1016.6 - 0.0 - - - - - - -
23/05:30am 16.5 SW 4 6 1016.4 - 0.0 - - - - - - -
23/05:00am 18.4 SW 7 9 1016.2 - 0.0 - - - - - - -
23/04:30am 18.9 SSW 6 9 1016.2 - 0.0 - - - - - - -
23/04:00am 17.0 SW 4 6 1016.3 - 0.0 - - - - - - -
23/03:30am 16.8 WSW 6 7 1016.3 - 0.0 - - - - - - -
23/03:00am 18.3 WSW 8 11 1016.4 - 0.0 - - - - - - -
23/02:30am 19.5 SW 11 15 1016.5 - 0.0 - - - - - - -
23/02:00am 18.2 SW 5 7 1016.7 - 0.0 - - - - - - -
23/01:30am 17.1 WSW 4 5 1016.9 - 0.0 - - - - - - -

Other Formats:

Comma delimited format used in spreadsheet applications
http://www.bom.gov.au/fwo/IDW60701/IDW60701.95402.axf

JavaScript Object Notation format (JSON) in row-major order
http://www.bom.gov.au/fwo/IDW60701/IDW60701.95402.json